createdAt,value
2023-01-21T00:01:44.846Z,19.40
2023-01-21T00:04:16.192Z,18.50
2023-01-21T00:06:44.635Z,31.90
2023-01-21T00:09:13.079Z,31.63
2023-01-21T00:11:41.309Z,28.83
2023-01-21T00:14:09.516Z,31.63
2023-01-21T00:16:37.703Z,28.20
2023-01-21T00:19:07.252Z,29.17
2023-01-21T00:21:35.438Z,27.30
2023-01-21T00:24:03.628Z,28.60
2023-01-21T00:26:31.821Z,29.53
2023-01-21T00:29:06.002Z,27.07
2023-01-21T00:31:34.399Z,30.30
2023-01-21T00:34:02.856Z,26.73
2023-01-21T00:36:32.420Z,24.57
2023-01-21T00:39:00.986Z,26.23
2023-01-21T00:41:29.251Z,21.27
2023-01-21T00:44:01.656Z,20.30
2023-01-21T00:46:29.923Z,22.07
2023-01-21T00:48:58.112Z,23.90
2023-01-21T00:51:26.348Z,22.23
2023-01-21T00:53:55.903Z,20.93
2023-01-21T00:56:24.814Z,24.53
2023-01-21T00:58:53.114Z,26.23
2023-01-21T01:01:23.511Z,27.40
2023-01-21T01:03:52.003Z,28.17
2023-01-21T01:06:30.211Z,28.23
2023-01-21T01:09:00.201Z,25.93
2023-01-21T01:11:29.458Z,27.23
2023-01-21T01:13:59.508Z,24.83
2023-01-21T01:16:27.876Z,22.13
2023-01-21T01:18:57.542Z,27.10
2023-01-21T01:21:25.884Z,28.60
2023-01-21T01:23:54.774Z,32.60
2023-01-21T01:26:24.331Z,32.10
2023-01-21T01:28:52.981Z,38.20
2023-01-21T01:31:22.721Z,31.90
2023-01-21T01:33:50.983Z,35.23
2023-01-21T01:36:23.958Z,34.57
2023-01-21T01:38:53.020Z,37.13
2023-01-21T01:41:27.287Z,29.07
2023-01-21T01:43:59.623Z,28.63
2023-01-21T01:46:30.779Z,30.17
2023-01-21T01:49:06.521Z,23.43
2023-01-21T01:51:44.670Z,27.30
2023-01-21T01:54:17.481Z,29.70
2023-01-21T01:56:51.440Z,27.87
2023-01-21T01:59:20.559Z,28.00
2023-01-21T02:01:48.820Z,25.03
2023-01-21T02:04:22.496Z,22.57
2023-01-21T02:06:53.544Z,22.23
2023-01-21T02:09:22.076Z,29.17
2023-01-21T02:11:51.917Z,24.00
2023-01-21T02:14:20.121Z,27.27
2023-01-21T02:17:13.161Z,27.23
2023-01-21T02:20:19.101Z,22.77
2023-01-21T02:22:53.234Z,20.67
2023-01-21T02:25:57.757Z,22.00
2023-01-21T02:29:08.466Z,24.73
2023-01-21T02:32:02.010Z,25.70
2023-01-21T02:34:37.568Z,25.17
2023-01-21T02:37:12.350Z,22.70
2023-01-21T02:40:00.017Z,14.80
2023-01-21T02:42:40.030Z,16.77
2023-01-21T02:45:19.776Z,22.97
2023-01-21T02:47:54.937Z,23.10
2023-01-21T02:50:28.452Z,21.87
2023-01-21T02:52:58.561Z,26.50
2023-01-21T02:55:31.464Z,17.27
2023-01-21T02:58:02.941Z,17.17
2023-01-21T03:00:48.171Z,14.90
2023-01-21T03:04:09.223Z,16.60
2023-01-21T03:06:52.420Z,19.03
2023-01-21T03:09:24.828Z,17.90
2023-01-21T03:12:08.953Z,17.67
2023-01-21T03:14:58.829Z,19.40
2023-01-21T03:17:37.673Z,24.77
2023-01-21T03:20:12.417Z,24.43
2023-01-21T03:22:42.200Z,24.20
2023-01-21T03:25:13.112Z,25.03
2023-01-21T03:27:44.530Z,24.43
2023-01-21T03:30:18.039Z,23.17
2023-01-21T03:32:52.767Z,24.30
2023-01-21T03:35:27.192Z,24.50
2023-01-21T03:38:04.363Z,23.53
2023-01-21T03:40:37.302Z,25.40
2023-01-21T03:43:05.711Z,23.17
2023-01-21T03:45:39.411Z,28.97
2023-01-21T03:48:17.616Z,25.70
2023-01-21T03:50:53.250Z,26.60
2023-01-21T03:53:23.157Z,27.17
2023-01-21T03:55:52.481Z,25.37
2023-01-21T03:58:20.763Z,25.50
2023-01-21T04:00:49.547Z,25.90
2023-01-21T04:03:17.722Z,23.37
2023-01-21T04:05:45.915Z,27.13
2023-01-21T04:08:14.128Z,26.63
2023-01-21T04:10:43.755Z,33.10
2023-01-21T04:13:12.509Z,32.70
2023-01-21T04:15:40.705Z,24.33
2023-01-21T04:18:08.914Z,29.10
2023-01-21T04:20:37.113Z,28.90
2023-01-21T04:23:05.366Z,28.43
2023-01-21T04:25:33.585Z,29.33
2023-01-21T04:28:03.150Z,25.40
2023-01-21T04:30:31.445Z,29.63
2023-01-21T04:32:59.684Z,28.80
2023-01-21T04:35:27.914Z,26.10
2023-01-21T04:37:56.245Z,29.50
2023-01-21T04:40:24.507Z,29.57
2023-01-21T04:42:52.662Z,29.90
2023-01-21T04:45:22.313Z,27.47
2023-01-21T04:47:50.574Z,32.97
2023-01-21T04:50:19.640Z,31.07
2023-01-21T04:52:47.874Z,35.23
2023-01-21T04:55:16.262Z,34.23
2023-01-21T04:57:44.484Z,34.60
2023-01-21T05:00:14.078Z,34.53
2023-01-21T05:02:43.725Z,32.53
2023-01-21T05:05:14.592Z,32.83
2023-01-21T05:07:43.276Z,33.77
2023-01-21T05:10:17.001Z,35.77
2023-01-21T05:12:45.402Z,40.90
2023-01-21T05:15:13.702Z,36.27
2023-01-21T05:17:43.470Z,37.53
2023-01-21T05:20:12.972Z,35.23
2023-01-21T05:22:41.224Z,38.23
2023-01-21T05:25:10.065Z,37.53
2023-01-21T05:27:38.259Z,37.57
2023-01-21T05:30:08.335Z,40.70
2023-01-21T05:32:36.951Z,35.00
2023-01-21T05:35:07.312Z,37.20
2023-01-21T05:37:35.881Z,32.73
2023-01-21T05:40:04.401Z,33.00
2023-01-21T05:42:32.575Z,35.83
2023-01-21T05:45:01.471Z,36.33
2023-01-21T05:47:29.686Z,39.23
2023-01-21T05:49:57.883Z,39.20
2023-01-21T05:52:27.475Z,40.50
2023-01-21T05:55:01.950Z,46.30
2023-01-21T05:57:31.336Z,44.10
2023-01-21T05:59:59.995Z,34.17
2023-01-21T06:02:28.695Z,31.63
2023-01-21T06:04:56.935Z,33.87
2023-01-21T06:07:25.092Z,33.40
2023-01-21T06:09:54.698Z,38.90
2023-01-21T06:12:24.767Z,34.77
2023-01-21T06:14:53.111Z,33.40
2023-01-21T06:17:21.434Z,40.43
2023-01-21T06:19:49.637Z,36.27
2023-01-21T06:22:18.593Z,36.43
2023-01-21T06:24:46.934Z,43.93
2023-01-21T06:27:16.442Z,44.60
2023-01-21T06:29:44.925Z,39.70
2023-01-21T06:32:13.128Z,41.80
2023-01-21T06:34:41.307Z,37.30
2023-01-21T06:37:09.596Z,38.13
2023-01-21T06:39:38.782Z,38.10
2023-01-21T06:42:07.044Z,38.07
2023-01-21T06:44:36.603Z,33.70
2023-01-21T06:47:04.960Z,34.77
2023-01-21T06:49:33.214Z,37.80
2023-01-21T06:52:01.421Z,35.70
2023-01-21T06:54:30.605Z,34.10
2023-01-21T06:56:59.901Z,37.20
2023-01-21T06:59:28.150Z,30.73
2023-01-21T07:01:59.102Z,37.03
2023-01-21T07:04:30.178Z,34.40
2023-01-21T07:06:58.310Z,33.20
2023-01-21T07:09:26.576Z,34.10
2023-01-21T07:11:55.526Z,38.33
2023-01-21T07:14:23.747Z,37.10
2023-01-21T07:16:52.066Z,33.60
2023-01-21T07:19:21.606Z,34.07
2023-01-21T07:21:50.334Z,37.77
2023-01-21T07:24:18.542Z,35.77
2023-01-21T07:26:46.778Z,37.27
2023-01-21T07:29:15.228Z,34.23
2023-01-21T07:31:43.475Z,35.50
2023-01-21T07:34:11.901Z,39.50
2023-01-21T07:36:41.590Z,34.80
2023-01-21T07:39:10.184Z,42.87
2023-01-21T07:41:42.060Z,40.97
2023-01-21T07:44:13.390Z,37.03
2023-01-21T07:46:41.648Z,32.17
2023-01-21T07:49:12.860Z,36.77
2023-01-21T07:51:42.431Z,34.27
2023-01-21T07:54:12.062Z,42.43
2023-01-21T07:56:40.369Z,51.47
2023-01-21T07:59:09.143Z,42.57
2023-01-21T08:01:37.470Z,37.93
2023-01-21T08:04:07.060Z,45.50
2023-01-21T08:06:35.314Z,38.53
2023-01-21T08:09:05.537Z,38.33
2023-01-21T08:11:33.900Z,40.63
2023-01-21T08:14:02.132Z,41.13
2023-01-21T08:16:30.869Z,34.60
2023-01-21T08:18:59.078Z,34.90
2023-01-21T08:21:27.283Z,38.77
2023-01-21T08:23:55.474Z,38.77
2023-01-21T08:26:25.820Z,41.10
2023-01-21T08:28:55.448Z,31.17
2023-01-21T08:31:23.726Z,34.00
2023-01-21T08:33:51.983Z,31.07
2023-01-21T08:36:20.254Z,28.63
2023-01-21T08:38:48.875Z,31.03
2023-01-21T08:41:17.793Z,29.03
2023-01-21T08:43:47.363Z,33.30
2023-01-21T08:46:15.875Z,29.57
2023-01-21T08:48:44.144Z,27.00
2023-01-21T08:51:12.496Z,34.30
2023-01-21T08:53:40.776Z,34.30
2023-01-21T08:56:09.271Z,30.33
2023-01-21T08:58:37.521Z,33.70
2023-01-21T09:01:12.673Z,28.00
2023-01-21T09:03:40.957Z,27.90
2023-01-21T09:06:13.130Z,29.47
2023-01-21T09:08:42.158Z,25.10
2023-01-21T09:11:10.477Z,31.53
2023-01-21T09:13:40.740Z,28.80
2023-01-21T09:16:12.512Z,30.87
2023-01-21T09:18:41.048Z,30.60
2023-01-21T09:21:11.705Z,29.57
2023-01-21T09:23:41.593Z,27.57
2023-01-21T09:26:15.811Z,31.07
2023-01-21T09:28:46.388Z,35.40
2023-01-21T09:31:18.560Z,26.00
2023-01-21T09:33:49.439Z,26.40
2023-01-21T09:36:20.089Z,31.10
2023-01-21T09:38:50.638Z,29.47
2023-01-21T09:41:29.330Z,27.80
2023-01-21T09:44:08.807Z,28.53
2023-01-21T09:46:45.867Z,23.60
2023-01-21T09:49:20.657Z,30.10
2023-01-21T09:52:06.891Z,24.70
2023-01-21T09:54:37.460Z,26.27
2023-01-21T09:57:41.583Z,35.57
2023-01-21T10:00:34.954Z,29.27
2023-01-21T10:03:23.004Z,32.87
2023-01-21T10:06:23.148Z,26.03
2023-01-21T10:09:22.267Z,30.33
2023-01-21T10:12:07.282Z,24.80
2023-01-21T10:15:20.360Z,29.63
2023-01-21T10:17:57.268Z,25.33
2023-01-21T10:20:31.635Z,21.93
2023-01-21T10:23:06.445Z,27.27
2023-01-21T10:25:37.208Z,23.23
2023-01-21T10:28:14.160Z,29.00
2023-01-21T10:30:46.881Z,25.93
2023-01-21T10:33:19.705Z,22.10
2023-01-21T10:36:30.958Z,29.57
2023-01-21T10:39:06.733Z,32.50
2023-01-21T10:41:54.800Z,27.90
2023-01-21T10:44:29.649Z,28.97
2023-01-21T10:47:05.928Z,28.30
2023-01-21T10:49:49.284Z,25.87
2023-01-21T10:52:27.503Z,24.27
2023-01-21T10:55:06.491Z,26.67
2023-01-21T10:57:49.443Z,24.27
2023-01-21T11:00:23.737Z,26.77
2023-01-21T11:02:57.934Z,27.97
2023-01-21T11:05:27.450Z,29.37
2023-01-21T11:07:58.426Z,26.77
2023-01-21T11:10:28.378Z,28.50
2023-01-21T11:12:57.355Z,25.07
2023-01-21T11:15:32.099Z,23.40
2023-01-21T11:18:00.332Z,28.87
2023-01-21T11:20:36.916Z,25.63
2023-01-21T11:23:11.523Z,30.00
2023-01-21T11:25:42.216Z,23.87
2023-01-21T11:28:24.995Z,24.33
2023-01-21T11:31:08.551Z,24.17
2023-01-21T11:33:37.896Z,24.67
2023-01-21T11:36:16.184Z,23.87
2023-01-21T11:38:48.566Z,28.00
2023-01-21T11:41:21.678Z,25.63
2023-01-21T11:43:53.499Z,22.00
2023-01-21T11:46:31.789Z,23.23
2023-01-21T11:49:27.949Z,24.13
2023-01-21T11:52:19.581Z,23.17
2023-01-21T11:54:49.636Z,20.13
2023-01-21T11:57:30.920Z,25.43
2023-01-21T12:00:10.150Z,21.93
2023-01-21T12:02:46.319Z,22.83
2023-01-21T12:05:19.023Z,18.93
2023-01-21T12:07:51.025Z,22.80
2023-01-21T12:10:30.603Z,19.97
2023-01-21T12:13:18.790Z,21.83
2023-01-21T12:16:33.204Z,23.00
2023-01-21T12:19:26.763Z,24.40
2023-01-21T12:22:12.146Z,23.37
2023-01-21T12:24:58.153Z,20.30
2023-01-21T12:27:34.162Z,18.57
2023-01-21T12:30:17.928Z,21.00
2023-01-21T12:32:51.606Z,17.97
2023-01-21T12:35:29.495Z,23.03
2023-01-21T12:38:04.148Z,22.27
2023-01-21T12:40:35.970Z,17.60
2023-01-21T12:43:19.510Z,19.63
2023-01-21T12:45:53.276Z,18.87
2023-01-21T12:48:30.584Z,22.87
2023-01-21T12:51:05.072Z,19.03
2023-01-21T12:53:41.846Z,16.17
2023-01-21T12:56:22.363Z,18.20
2023-01-21T12:58:58.981Z,15.10
2023-01-21T13:01:45.666Z,15.77
2023-01-21T13:04:31.693Z,15.00
2023-01-21T13:07:06.566Z,12.57
2023-01-21T13:09:42.913Z,14.90
2023-01-21T13:12:17.067Z,12.10
2023-01-21T13:14:51.736Z,11.10
2023-01-21T13:17:23.999Z,13.80
2023-01-21T13:19:52.247Z,12.27
2023-01-21T13:22:36.616Z,11.50
2023-01-21T13:25:23.210Z,9.63
2023-01-21T13:28:01.633Z,11.10
2023-01-21T13:30:40.957Z,12.20
2023-01-21T13:33:32.260Z,13.40
2023-01-21T13:36:15.542Z,13.00
2023-01-21T13:38:51.106Z,15.50
2023-01-21T13:41:34.811Z,13.37
2023-01-21T13:44:46.686Z,12.53
2023-01-21T13:47:29.828Z,12.00
2023-01-21T13:50:17.447Z,11.77
2023-01-21T13:53:09.729Z,9.53
2023-01-21T13:55:54.571Z,12.20
2023-01-21T13:58:34.578Z,12.73
2023-01-21T14:01:07.966Z,10.67
2023-01-21T14:03:44.645Z,16.57
2023-01-21T14:06:22.090Z,17.03
2023-01-21T14:08:55.831Z,18.97
2023-01-21T14:11:30.966Z,16.50
2023-01-21T14:14:25.054Z,15.97
2023-01-21T14:17:43.297Z,15.83
2023-01-21T14:20:54.743Z,17.07
2023-01-21T14:23:50.298Z,12.27
2023-01-21T14:26:39.948Z,13.80
2023-01-21T14:29:18.651Z,16.53
2023-01-21T14:31:51.897Z,15.30
2023-01-21T14:34:24.874Z,17.10
2023-01-21T14:37:05.070Z,17.40
2023-01-21T14:39:52.661Z,12.50
2023-01-21T14:42:26.372Z,11.77
2023-01-21T14:45:06.327Z,10.60
2023-01-21T14:47:50.247Z,10.10
2023-01-21T14:50:53.503Z,11.77
2023-01-21T14:53:26.164Z,11.83
2023-01-21T14:56:20.232Z,12.13
2023-01-21T14:58:51.170Z,12.00
2023-01-21T15:01:41.341Z,13.60
2023-01-21T15:04:25.269Z,13.47
2023-01-21T15:06:58.148Z,12.40
2023-01-21T15:09:31.813Z,13.10
2023-01-21T15:12:02.707Z,14.37
2023-01-21T15:14:34.787Z,12.23
2023-01-21T15:17:03.108Z,15.13
2023-01-21T15:19:34.518Z,13.57
2023-01-21T15:22:40.782Z,13.70
2023-01-21T15:25:34.230Z,19.63
2023-01-21T15:28:43.834Z,17.37
2023-01-21T15:31:16.407Z,10.53
2023-01-21T15:33:50.453Z,12.03
2023-01-21T15:36:25.889Z,16.50
2023-01-21T15:39:00.747Z,12.27
2023-01-21T15:41:53.885Z,22.67
2023-01-21T15:44:37.556Z,14.23
2023-01-21T15:47:29.415Z,14.80
2023-01-21T15:50:06.680Z,17.13
2023-01-21T15:52:50.744Z,14.13
2023-01-21T15:55:37.390Z,15.23
2023-01-21T15:58:21.675Z,15.73
2023-01-21T16:01:00.776Z,15.87
2023-01-21T16:03:34.163Z,18.53
2023-01-21T16:06:09.090Z,13.67
2023-01-21T16:08:58.448Z,12.60
2023-01-21T16:11:56.761Z,14.03
2023-01-21T16:14:52.440Z,12.80
2023-01-21T16:17:31.316Z,13.67
2023-01-21T16:20:01.421Z,12.93
2023-01-21T16:22:35.026Z,13.83
2023-01-21T16:25:07.931Z,14.93
2023-01-21T16:27:36.294Z,16.93
2023-01-21T16:30:09.477Z,11.33
2023-01-21T16:32:38.034Z,14.27
2023-01-21T16:35:07.224Z,14.70
2023-01-21T16:37:35.785Z,13.93
2023-01-21T16:40:27.616Z,14.90
2023-01-21T16:43:12.954Z,13.03
2023-01-21T16:45:51.156Z,17.33
2023-01-21T16:48:24.720Z,13.53
2023-01-21T16:50:54.404Z,16.27
2023-01-21T16:53:25.225Z,12.97
2023-01-21T16:55:56.247Z,14.83
2023-01-21T16:58:29.560Z,15.47
2023-01-21T17:01:06.808Z,15.33
2023-01-21T17:03:35.215Z,17.53
2023-01-21T17:06:19.587Z,21.27
2023-01-21T17:08:51.842Z,24.60
2023-01-21T17:11:20.369Z,21.33
2023-01-21T17:13:50.055Z,25.40
2023-01-21T17:16:27.222Z,20.90
2023-01-21T17:18:59.375Z,20.60
2023-01-21T17:21:37.671Z,17.87
2023-01-21T17:24:16.327Z,46.47
2023-01-21T17:26:48.523Z,20.80
2023-01-21T17:29:21.913Z,17.60
2023-01-21T17:31:59.623Z,21.20
2023-01-21T17:34:30.180Z,18.53
2023-01-21T17:36:59.125Z,16.73
2023-01-21T17:40:00.959Z,13.93
2023-01-21T17:42:41.524Z,15.53
2023-01-21T17:45:20.729Z,12.33
2023-01-21T17:48:08.255Z,16.07
2023-01-21T17:50:38.319Z,14.67
2023-01-21T17:53:09.991Z,13.40
2023-01-21T17:55:40.187Z,12.83
2023-01-21T17:58:46.663Z,15.13
2023-01-21T18:01:16.157Z,13.43
2023-01-21T18:03:45.800Z,15.80
2023-01-21T18:06:21.226Z,15.40
2023-01-21T18:08:50.877Z,16.63
2023-01-21T18:11:19.712Z,10.23
2023-01-21T18:13:48.534Z,12.77
2023-01-21T18:16:17.032Z,12.83
2023-01-21T18:18:46.727Z,16.50
2023-01-21T18:21:20.519Z,14.00
2023-01-21T18:23:49.671Z,16.37
2023-01-21T18:26:30.314Z,17.57
2023-01-21T18:28:58.641Z,15.10
2023-01-21T18:31:27.146Z,14.13
2023-01-21T18:33:56.840Z,13.33
2023-01-21T18:36:25.027Z,13.47
2023-01-21T18:38:53.157Z,17.97
2023-01-21T18:41:21.432Z,15.77
2023-01-21T18:43:49.644Z,13.67
2023-01-21T18:46:19.812Z,16.50
2023-01-21T18:48:48.292Z,14.53
2023-01-21T18:51:18.109Z,14.77
2023-01-21T18:53:46.478Z,16.40
2023-01-21T18:56:15.773Z,17.50
2023-01-21T18:58:44.169Z,17.57
2023-01-21T19:01:22.981Z,19.83
2023-01-21T19:04:04.151Z,15.80
2023-01-21T19:06:33.831Z,19.17
2023-01-21T19:09:02.108Z,17.07
2023-01-21T19:11:30.358Z,15.37
2023-01-21T19:13:58.562Z,19.13
2023-01-21T19:16:26.916Z,15.70
2023-01-21T19:18:55.117Z,15.43
2023-01-21T19:21:23.299Z,17.20
2023-01-21T19:23:53.795Z,15.63
2023-01-21T19:26:22.749Z,13.17
2023-01-21T19:28:51.466Z,12.70
2023-01-21T19:31:19.787Z,16.73
2023-01-21T19:33:48.028Z,15.40
2023-01-21T19:36:20.468Z,14.50
2023-01-21T19:38:56.561Z,22.90
2023-01-21T19:41:25.577Z,13.77
2023-01-21T19:43:53.758Z,15.57
2023-01-21T19:46:23.856Z,15.10
2023-01-21T19:48:53.665Z,13.00
2023-01-21T19:51:22.003Z,15.00
2023-01-21T19:53:50.287Z,12.57
2023-01-21T19:56:24.815Z,16.70
2023-01-21T19:58:53.309Z,17.00
2023-01-21T20:01:21.515Z,17.90
2023-01-21T20:03:59.610Z,17.30
2023-01-21T20:06:31.892Z,13.10
2023-01-21T20:09:01.177Z,14.37
2023-01-21T20:11:31.001Z,14.53
2023-01-21T20:13:59.186Z,14.23
2023-01-21T20:16:27.601Z,14.23
2023-01-21T20:18:56.246Z,11.13
2023-01-21T20:21:24.591Z,15.03
2023-01-21T20:23:52.836Z,13.07
2023-01-21T20:26:27.130Z,16.70
2023-01-21T20:28:57.765Z,15.00
2023-01-21T20:31:26.015Z,16.17
2023-01-21T20:33:54.251Z,13.10
2023-01-21T20:36:25.249Z,12.73
2023-01-21T20:38:55.005Z,15.73
2023-01-21T20:41:23.669Z,14.60
2023-01-21T20:43:51.897Z,17.10
2023-01-21T20:46:23.766Z,17.30
2023-01-21T20:49:17.119Z,16.37
2023-01-21T20:51:45.652Z,17.10
2023-01-21T20:54:13.830Z,17.30
2023-01-21T20:56:42.097Z,13.70
2023-01-21T20:59:10.751Z,14.70
2023-01-21T21:02:04.358Z,14.53
2023-01-21T21:04:42.657Z,14.70
2023-01-21T21:07:16.682Z,15.33
2023-01-21T21:09:44.837Z,15.57
2023-01-21T21:12:13.028Z,11.83
2023-01-21T21:14:41.209Z,12.83
2023-01-21T21:17:13.179Z,11.80
2023-01-21T21:19:41.382Z,18.17
2023-01-21T21:22:09.594Z,12.73
2023-01-21T21:24:39.031Z,13.70
2023-01-21T21:27:07.280Z,12.17
2023-01-21T21:29:35.476Z,14.83
2023-01-21T21:32:04.616Z,14.33
2023-01-21T21:34:34.450Z,14.37
2023-01-21T21:37:02.674Z,13.97
2023-01-21T21:39:30.951Z,15.43
2023-01-21T21:42:16.711Z,15.37
2023-01-21T21:44:45.399Z,13.17
2023-01-21T21:47:30.859Z,16.90
2023-01-21T21:50:00.419Z,14.53
2023-01-21T21:52:31.491Z,14.57
2023-01-21T21:54:59.659Z,12.00
2023-01-21T21:57:27.855Z,13.03
2023-01-21T21:59:56.050Z,15.13
2023-01-21T22:02:24.202Z,17.20
2023-01-21T22:04:54.919Z,12.47
2023-01-21T22:07:24.683Z,12.50
2023-01-21T22:09:52.907Z,20.57
2023-01-21T22:12:21.083Z,13.67
2023-01-21T22:14:49.262Z,18.63
2023-01-21T22:17:17.491Z,16.00
2023-01-21T22:19:45.712Z,15.03
2023-01-21T22:22:13.890Z,14.43
2023-01-21T22:24:44.094Z,17.63
2023-01-21T22:27:13.152Z,15.77
2023-01-21T22:29:41.436Z,15.10
2023-01-21T22:32:10.051Z,17.07
2023-01-21T22:34:38.181Z,13.20
2023-01-21T22:37:06.572Z,13.10
2023-01-21T22:39:34.761Z,12.73
2023-01-21T22:42:05.082Z,15.03
2023-01-21T22:44:33.293Z,15.53
2023-01-21T22:47:04.055Z,13.40
2023-01-21T22:49:32.227Z,13.47
2023-01-21T22:52:00.438Z,14.03
2023-01-21T22:54:28.603Z,15.17
2023-01-21T22:56:56.852Z,13.80
2023-01-21T22:59:26.469Z,16.90
2023-01-21T23:01:54.591Z,15.27
2023-01-21T23:04:27.743Z,13.83
2023-01-21T23:06:55.952Z,14.70
2023-01-21T23:09:24.419Z,13.70
2023-01-21T23:11:53.285Z,13.30
2023-01-21T23:14:21.759Z,12.17
2023-01-21T23:16:53.615Z,11.87
2023-01-21T23:19:21.849Z,11.43
2023-01-21T23:21:50.006Z,11.30
2023-01-21T23:24:19.148Z,13.83
2023-01-21T23:26:47.428Z,10.27
2023-01-21T23:29:15.611Z,11.33
2023-01-21T23:31:43.997Z,10.40
2023-01-21T23:34:15.342Z,10.37
2023-01-21T23:36:43.575Z,12.53
2023-01-21T23:39:12.018Z,10.90
2023-01-21T23:41:40.199Z,11.03
2023-01-21T23:44:10.643Z,9.60
2023-01-21T23:46:39.057Z,12.23
2023-01-21T23:49:07.455Z,10.87
2023-01-21T23:51:37.035Z,11.33
2023-01-21T23:54:05.446Z,11.17
2023-01-21T23:56:33.738Z,14.73
2023-01-21T23:59:02.305Z,12.23
